Time;durP1;ratioP1;P1;durP2;ratioP2;P2;SDS_P1;SDS_P2;PMS_P1;PMS_P2;Temp;Humidity;BMP_temperature;BMP_pressure;BME280_temperature;BME280_humidity;BME280_pressure;Samples;Min_cycle;Max_cycle;Signal;HPM_P1;HPM_P2
2021/04/22 00:01:48;;;;;;;6.90;3.10;;;9.50;99.90;;;;;;5056250;28;20206;-62
2021/04/22 00:04:14;;;;;;;7.50;2.63;;;9.50;99.90;;;;;;5048103;28;20182;-61
2021/04/22 00:06:40;;;;;;;5.57;1.93;;;9.50;99.90;;;;;;5064847;28;20161;-61
2021/04/22 00:09:08;;;;;;;7.77;3.77;;;9.60;99.90;;;;;;5068126;28;20427;-62
2021/04/22 00:11:34;;;;;;;6.65;3.50;;;9.60;99.90;;;;;;5057679;28;20408;-62
2021/04/22 00:14:00;;;;;;;6.10;2.80;;;9.60;99.90;;;;;;5067415;28;20281;-61
2021/04/22 00:16:26;;;;;;;8.60;2.60;;;9.70;99.90;;;;;;5054105;28;20189;-63
2021/04/22 00:18:51;;;;;;;5.63;2.70;;;9.70;99.90;;;;;;5047941;28;20314;-62
2021/04/22 00:21:17;;;;;;;7.57;2.43;;;9.70;99.90;;;;;;5060341;28;20197;-62
2021/04/22 00:23:43;;;;;;;9.93;4.37;;;9.70;99.90;;;;;;5067715;28;20207;-61
2021/04/22 00:26:08;;;;;;;6.47;2.83;;;9.70;99.90;;;;;;5066070;28;20430;-62
2021/04/22 00:28:34;;;;;;;9.53;3.90;;;9.70;99.90;;;;;;5067643;28;20196;-63
2021/04/22 00:31:00;;;;;;;7.90;3.70;;;9.80;99.90;;;;;;5065871;28;20177;-63
2021/04/22 00:33:26;;;;;;;9.07;2.93;;;9.80;99.90;;;;;;5067482;28;20166;-62
2021/04/22 00:35:51;;;;;;;6.43;2.47;;;9.90;99.90;;;;;;5059662;28;20424;-62
2021/04/22 00:38:17;;;;;;;5.43;2.33;;;9.90;99.90;;;;;;5047583;28;20250;-63
2021/04/22 00:40:45;;;;;;;6.65;2.63;;;9.80;99.90;;;;;;5051293;28;20207;-61
2021/04/22 00:43:15;;;;;;;7.32;3.88;;;9.80;99.90;;;;;;5067501;28;20177;-62
2021/04/22 00:45:42;;;;;;;4.35;1.63;;;9.80;99.90;;;;;;5061155;28;20222;-61
2021/04/22 00:48:27;;;;;;;6.05;2.83;;;9.80;99.90;;;;;;5067324;28;20305;-63
2021/04/22 00:50:54;;;;;;;8.02;2.50;;;9.80;99.90;;;;;;5066536;28;20169;-61
2021/04/22 00:53:21;;;;;;;5.30;1.85;;;9.80;99.90;;;;;;5067252;28;20232;-65
2021/04/22 00:55:48;;;;;;;8.00;3.83;;;9.80;99.90;;;;;;5061973;28;20198;-69
2021/04/22 00:58:14;;;;;;;10.70;3.25;;;9.90;99.90;;;;;;5047292;28;20178;-71
2021/04/22 01:01:01;;;;;;;11.18;3.15;;;9.90;99.90;;;;;;5063685;28;20236;-61
2021/04/22 01:03:29;;;;;;;6.00;2.85;;;10.00;99.90;;;;;;5067441;28;20273;-62
2021/04/22 01:05:57;;;;;;;7.95;2.58;;;10.00;99.90;;;;;;5056749;28;20282;-63
2021/04/22 01:08:23;;;;;;;5.70;3.00;;;10.00;99.90;;;;;;5067133;28;20185;-62
2021/04/22 01:10:49;;;;;;;9.18;3.13;;;10.00;99.90;;;;;;5051809;28;20186;-62
2021/04/22 01:13:15;;;;;;;7.00;3.17;;;10.00;99.90;;;;;;5067147;28;20180;-64
2021/04/22 01:15:41;;;;;;;13.60;4.30;;;9.90;99.90;;;;;;5051643;28;20168;-62
2021/04/22 01:18:08;;;;;;;8.50;3.30;;;9.80;99.90;;;;;;5058756;28;20513;-63
2021/04/22 01:20:38;;;;;;;7.00;3.10;;;9.80;99.90;;;;;;5054437;28;20275;-62
2021/04/22 01:23:04;;;;;;;7.20;2.67;;;9.70;99.90;;;;;;5063341;28;20204;-62
2021/04/22 01:25:36;;;;;;;11.15;3.45;;;9.60;99.90;;;;;;5054296;28;20382;-62
2021/04/22 01:28:04;;;;;;;9.07;3.20;;;9.60;99.90;;;;;;5046751;28;20275;-62
2021/04/22 01:30:52;;;;;;;6.45;2.45;;;9.50;99.90;;;;;;5047013;28;20278;-62
2021/04/22 01:33:21;;;;;;;6.25;2.35;;;9.50;99.90;;;;;;5046106;28;20216;-62
2021/04/22 01:35:49;;;;;;;7.05;2.40;;;9.50;99.90;;;;;;5059184;28;20196;-62
2021/04/22 01:38:15;;;;;;;9.98;3.80;;;9.40;99.90;;;;;;5066693;28;20248;-63
2021/04/22 01:40:41;;;;;;;8.17;2.30;;;9.40;99.90;;;;;;5054846;28;20468;-61
2021/04/22 01:43:08;;;;;;;9.20;4.15;;;9.30;99.90;;;;;;5046935;28;20436;-62
2021/04/22 01:45:35;;;;;;;6.47;1.60;;;9.20;99.90;;;;;;5048300;28;20211;-62
2021/04/22 01:48:00;;;;;;;6.28;2.28;;;9.20;99.90;;;;;;5046619;28;20221;-62
2021/04/22 01:50:29;;;;;;;6.60;2.27;;;9.20;99.90;;;;;;5047767;28;20190;-61
2021/04/22 01:52:56;;;;;;;6.40;2.50;;;9.10;99.90;;;;;;5046629;28;20154;-62
2021/04/22 01:55:43;;;;;;;9.52;3.42;;;9.10;99.90;;;;;;5056736;28;20166;-61
2021/04/22 01:58:13;;;;;;;7.22;2.25;;;9.20;99.90;;;;;;5065694;28;20257;-63
2021/04/22 02:00:42;;;;;;;6.38;2.60;;;9.20;99.90;;;;;;5047285;28;20205;-61
2021/04/22 02:03:08;;;;;;;6.43;2.33;;;9.20;99.90;;;;;;5046458;28;20154;-61
2021/04/22 02:05:38;;;;;;;6.38;2.47;;;9.10;99.90;;;;;;5063942;28;20184;-61
2021/04/22 02:08:05;;;;;;;7.97;4.15;;;9.10;99.90;;;;;;5066326;28;20197;-62
2021/04/22 02:10:32;;;;;;;8.52;2.72;;;9.00;99.90;;;;;;5064270;28;20213;-61
2021/04/22 02:12:57;;;;;;;10.95;2.75;;;8.90;99.90;;;;;;5046518;28;20167;-62
2021/04/22 02:15:27;;;;;;;11.83;3.13;;;8.90;99.90;;;;;;5060244;28;20202;-62
2021/04/22 02:17:53;;;;;;;8.35;2.20;;;8.90;99.90;;;;;;5066000;28;20404;-62
2021/04/22 02:20:19;;;;;;;7.18;2.30;;;8.90;99.90;;;;;;5064537;28;20244;-63
2021/04/22 02:22:45;;;;;;;6.18;3.15;;;9.00;99.90;;;;;;5066278;28;20173;-62
2021/04/22 02:25:15;;;;;;;7.30;2.70;;;9.00;99.90;;;;;;5052407;28;20381;-63
2021/04/22 02:27:42;;;;;;;8.43;3.53;;;8.90;99.90;;;;;;5046409;28;20296;-61
2021/04/22 02:30:11;;;;;;;5.20;1.90;;;9.00;99.90;;;;;;5050017;28;20166;-61
2021/04/22 02:32:37;;;;;;;6.32;3.00;;;9.00;99.90;;;;;;5049958;28;20191;-62
2021/04/22 02:35:04;;;;;;;9.20;2.90;;;8.90;99.90;;;;;;5059759;28;20184;-62
2021/04/22 02:37:30;;;;;;;7.70;3.08;;;8.90;99.90;;;;;;5069751;28;20506;-62
2021/04/22 02:39:57;;;;;;;7.80;2.53;;;8.90;99.90;;;;;;5060761;28;20178;-61
2021/04/22 02:42:22;;;;;;;6.85;2.30;;;8.90;99.90;;;;;;5049931;28;20353;-63
2021/04/22 02:44:48;;;;;;;8.23;2.50;;;8.80;99.90;;;;;;5056486;28;20172;-63
2021/04/22 02:47:13;;;;;;;10.63;3.20;;;8.90;99.90;;;;;;5068889;28;20176;-62
2021/04/22 02:49:39;;;;;;;8.53;5.10;;;8.90;99.90;;;;;;5063731;28;20213;-62
2021/04/22 02:52:05;;;;;;;5.73;1.93;;;8.90;99.90;;;;;;5049736;28;20186;-62
2021/04/22 02:54:31;;;;;;;5.27;1.80;;;9.00;99.90;;;;;;5050476;28;20172;-63
2021/04/22 02:56:57;;;;;;;7.50;2.38;;;9.00;99.90;;;;;;5049612;28;20446;-62
2021/04/22 02:59:23;;;;;;;6.95;2.40;;;9.10;99.90;;;;;;5062353;28;20264;-63
2021/04/22 03:01:49;;;;;;;8.50;2.53;;;9.10;99.90;;;;;;5063128;28;20197;-62
2021/04/22 03:04:15;;;;;;;6.50;3.20;;;9.20;99.90;;;;;;5056457;28;20188;-62
2021/04/22 03:06:40;;;;;;;8.00;3.30;;;9.20;99.90;;;;;;5049590;28;20644;-62
2021/04/22 03:09:06;;;;;;;12.03;4.37;;;9.20;99.90;;;;;;5050066;28;20410;-62
2021/04/22 03:11:32;;;;;;;8.40;2.33;;;9.20;99.90;;;;;;5049297;28;20235;-61
2021/04/22 03:13:57;;;;;;;8.93;2.37;;;9.30;99.90;;;;;;5056752;28;20382;-62
2021/04/22 03:16:23;;;;;;;6.50;2.40;;;9.30;99.90;;;;;;5062718;28;20178;-63
2021/04/22 03:18:49;;;;;;;9.13;3.50;;;9.30;99.90;;;;;;5057129;28;20191;-61
2021/04/22 03:21:15;;;;;;;11.50;2.90;;;9.30;99.90;;;;;;5062332;28;20208;-63
2021/04/22 03:23:40;;;;;;;9.13;2.77;;;9.30;99.90;;;;;;5056890;28;20382;-61
2021/04/22 03:26:06;;;;;;;7.17;2.93;;;9.30;99.90;;;;;;5068798;28;20192;-61
2021/04/22 03:28:32;;;;;;;7.00;2.97;;;9.30;99.90;;;;;;5062327;28;20225;-63
2021/04/22 03:30:57;;;;;;;8.27;3.60;;;9.30;99.90;;;;;;5049000;28;20158;-63
2021/04/22 03:33:23;;;;;;;10.57;4.07;;;9.30;99.90;;;;;;5052883;28;20236;-61
2021/04/22 03:35:50;;;;;;;10.37;3.67;;;9.30;99.90;;;;;;5066326;28;20377;-63
2021/04/22 03:38:16;;;;;;;10.30;4.00;;;9.30;99.90;;;;;;5051127;28;20341;-63
2021/04/22 03:40:42;;;;;;;7.97;3.27;;;9.30;99.90;;;;;;5067746;28;20211;-63
2021/04/22 03:43:07;;;;;;;9.03;2.43;;;9.30;99.90;;;;;;5067659;28;20426;-62
2021/04/22 03:45:33;;;;;;;8.07;3.83;;;9.30;99.90;;;;;;5048453;28;20173;-62
2021/04/22 03:47:59;;;;;;;9.00;3.20;;;9.20;99.90;;;;;;5048535;28;20210;-62
2021/04/22 03:50:24;;;;;;;10.37;3.10;;;9.20;99.90;;;;;;5065314;28;20175;-62
2021/04/22 03:52:50;;;;;;;8.20;2.90;;;9.20;99.90;;;;;;5068524;28;20173;-60
2021/04/22 03:55:18;;;;;;;10.90;3.60;;;9.20;99.90;;;;;;5066530;28;20223;-62
2021/04/22 03:57:44;;;;;;;6.90;2.90;;;9.10;99.90;;;;;;5068399;28;20658;-62
2021/04/22 04:00:17;;;;;;;11.25;3.72;;;9.10;99.90;;;;;;5067545;28;20269;-62
2021/04/22 04:02:43;;;;;;;13.02;4.60;;;9.10;99.90;;;;;;5068437;28;20174;-62
2021/04/22 04:05:09;;;;;;;12.27;3.30;;;9.10;99.90;;;;;;5063393;28;20171;-62
2021/04/22 04:07:36;;;;;;;7.18;2.22;;;9.10;99.90;;;;;;5048299;28;20173;-62
2021/04/22 04:10:04;;;;;;;9.70;3.88;;;9.00;99.90;;;;;;5049186;28;20180;-62
2021/04/22 04:12:30;;;;;;;8.48;3.30;;;8.90;99.90;;;;;;5048177;28;20169;-62
2021/04/22 04:14:55;;;;;;;6.30;3.00;;;8.80;99.90;;;;;;5059534;28;20211;-62
2021/04/22 04:17:22;;;;;;;8.27;4.20;;;8.80;99.90;;;;;;5066947;28;20172;-61
2021/04/22 04:19:47;;;;;;;6.47;2.75;;;8.70;99.90;;;;;;5062607;28;20329;-60
2021/04/22 04:22:13;;;;;;;6.53;3.13;;;8.70;99.90;;;;;;5047755;28;20241;-63
2021/04/22 04:24:39;;;;;;;10.10;3.40;;;8.70;99.90;;;;;;5055663;28;20166;-62
2021/04/22 04:27:04;;;;;;;6.70;2.33;;;8.70;99.90;;;;;;5067834;28;20298;-62
2021/04/22 04:29:30;;;;;;;8.33;3.30;;;8.70;99.90;;;;;;5065569;28;20231;-62
2021/04/22 04:31:56;;;;;;;28.87;3.50;;;8.60;99.90;;;;;;5067685;28;20423;-61
2021/04/22 04:34:21;;;;;;;11.27;3.47;;;8.60;99.90;;;;;;5064375;28;20189;-62
2021/04/22 04:36:47;;;;;;;10.13;3.10;;;8.50;99.90;;;;;;5067561;28;20260;-63
2021/04/22 04:39:16;;;;;;;9.43;3.23;;;8.40;99.90;;;;;;5066937;28;20183;-61
2021/04/22 04:41:43;;;;;;;8.25;3.78;;;8.40;99.90;;;;;;5067411;28;20386;-64
2021/04/22 04:44:09;;;;;;;9.20;2.97;;;8.40;99.90;;;;;;5065576;28;20246;-62
2021/04/22 04:46:36;;;;;;;8.18;2.25;;;8.40;99.90;;;;;;5048612;28;20174;-61
2021/04/22 04:49:03;;;;;;;9.45;3.53;;;8.40;99.90;;;;;;5048113;28;20180;-60
2021/04/22 04:51:28;;;;;;;11.32;3.25;;;8.40;99.90;;;;;;5053105;28;20447;-61
2021/04/22 04:53:54;;;;;;;10.17;3.70;;;8.40;99.90;;;;;;5067056;28;20195;-63
2021/04/22 04:56:20;;;;;;;7.30;2.93;;;8.40;99.90;;;;;;5049020;28;20390;-61
2021/04/22 04:58:47;;;;;;;5.40;2.20;;;8.40;99.90;;;;;;5058079;28;20459;-62
2021/04/22 05:01:13;;;;;;;11.65;4.28;;;8.50;99.90;;;;;;5067148;28;20368;-63
2021/04/22 05:03:39;;;;;;;9.13;2.92;;;8.50;99.90;;;;;;5056878;28;20402;-61
2021/04/22 05:06:05;;;;;;;13.07;3.27;;;8.50;99.90;;;;;;5046687;28;20176;-61
2021/04/22 05:08:32;;;;;;;18.00;4.25;;;8.60;99.90;;;;;;5054364;28;20436;-63
2021/04/22 05:10:58;;;;;;;9.10;4.38;;;8.60;99.90;;;;;;5064229;28;20399;-62
2021/04/22 05:13:24;;;;;;;10.80;4.27;;;8.70;99.90;;;;;;5052695;28;20207;-62
2021/04/22 05:15:49;;;;;;;10.60;5.63;;;8.80;99.90;;;;;;5066691;28;20434;-61
2021/04/22 05:18:15;;;;;;;11.17;4.40;;;8.90;99.90;;;;;;5062459;28;20265;-61
2021/04/22 05:20:40;;;;;;;14.03;6.40;;;8.90;99.90;;;;;;5047966;28;20351;-61
2021/04/22 05:23:06;;;;;;;16.60;5.00;;;9.00;99.90;;;;;;5061473;28;20184;-61
2021/04/22 05:25:32;;;;;;;9.90;4.20;;;9.10;99.90;;;;;;5047840;28;20180;-63
2021/04/22 05:27:57;;;;;;;12.53;4.37;;;9.20;99.90;;;;;;5045952;28;20201;-62
2021/04/22 05:30:23;;;;;;;9.63;4.10;;;9.20;99.90;;;;;;5066826;28;20168;-62
2021/04/22 05:32:49;;;;;;;11.48;5.07;;;9.20;99.90;;;;;;5066819;28;20193;-63
2021/04/22 05:35:16;;;;;;;8.50;3.37;;;9.30;99.90;;;;;;5064219;28;20421;-62
2021/04/22 05:37:42;;;;;;;12.93;3.53;;;9.30;99.90;;;;;;5066669;28;20188;-62
2021/04/22 05:40:08;;;;;;;10.33;4.40;;;9.50;99.90;;;;;;5066404;28;20196;-62
2021/04/22 05:42:34;;;;;;;12.73;4.72;;;9.70;99.90;;;;;;5066752;28;20524;-63
2021/04/22 05:45:00;;;;;;;10.93;4.97;;;9.90;99.90;;;;;;5050874;28;20170;-62
2021/04/22 05:47:25;;;;;;;9.70;4.73;;;10.10;99.90;;;;;;5046805;28;20177;-61
2021/04/22 05:49:51;;;;;;;9.60;4.00;;;10.30;99.90;;;;;;5047806;28;20185;-62
2021/04/22 05:52:17;;;;;;;11.67;6.47;;;10.30;99.90;;;;;;5046596;28;20212;-62
2021/04/22 05:54:42;;;;;;;11.40;5.83;;;10.50;99.90;;;;;;5046294;28;20205;-61
2021/04/22 05:57:08;;;;;;;13.70;4.27;;;10.50;99.90;;;;;;5056215;28;20200;-62
2021/04/22 05:59:34;;;;;;;10.83;6.10;;;10.50;99.90;;;;;;5056484;28;20286;-62
2021/04/22 06:02:00;;;;;;;14.40;6.30;;;10.60;99.90;;;;;;5046769;28;20688;-62
2021/04/22 06:04:25;;;;;;;11.13;4.93;;;10.60;99.90;;;;;;5055832;28;20161;-61
2021/04/22 06:06:51;;;;;;;10.63;5.30;;;10.40;99.90;;;;;;5070488;28;20732;-60
2021/04/22 06:09:17;;;;;;;9.23;4.87;;;10.40;99.90;;;;;;5064101;28;20201;-62
2021/04/22 06:11:42;;;;;;;16.30;7.23;;;10.30;99.90;;;;;;5058531;28;20228;-64
2021/04/22 06:14:08;;;;;;;11.93;5.40;;;10.20;99.90;;;;;;5065637;28;20443;-65
2021/04/22 06:16:34;;;;;;;11.77;4.77;;;10.10;99.90;;;;;;5050349;28;20477;-64
2021/04/22 06:18:59;;;;;;;13.30;5.17;;;10.20;99.90;;;;;;5052319;28;20243;-64
2021/04/22 06:21:25;;;;;;;11.47;5.17;;;10.40;99.90;;;;;;5069419;28;20173;-63
2021/04/22 06:23:52;;;;;;;11.80;5.40;;;10.40;99.90;;;;;;5069235;28;20199;-63
2021/04/22 06:26:19;;;;;;;16.02;6.53;;;10.50;99.90;;;;;;5061916;28;20322;-63
2021/04/22 06:28:44;;;;;;;9.55;3.53;;;10.50;99.90;;;;;;5049031;28;20343;-64
2021/04/22 06:31:10;;;;;;;12.03;4.97;;;10.40;99.90;;;;;;5067435;28;20232;-60
2021/04/22 06:33:36;;;;;;;9.80;4.87;;;10.40;99.90;;;;;;5068409;28;20252;-61
2021/04/22 06:36:02;;;;;;;9.00;4.73;;;10.30;99.90;;;;;;5069692;28;20165;-62
2021/04/22 06:38:28;;;;;;;9.52;4.18;;;10.30;99.90;;;;;;5060710;28;20207;-66
2021/04/22 06:40:54;;;;;;;10.97;5.10;;;10.40;99.90;;;;;;5055538;28;20398;-67
2021/04/22 06:43:20;;;;;;;10.97;5.43;;;10.50;99.90;;;;;;5067881;28;20318;-66
2021/04/22 06:45:46;;;;;;;11.30;4.70;;;10.50;99.90;;;;;;5068575;28;20236;-71
2021/04/22 06:48:14;;;;;;;11.02;5.25;;;10.60;99.90;;;;;;5069532;28;20181;-67
2021/04/22 06:50:40;;;;;;;11.23;4.10;;;10.70;99.90;;;;;;5064229;28;20213;-64
2021/04/22 06:53:06;;;;;;;13.65;5.97;;;10.80;99.90;;;;;;5070073;28;20172;-64
2021/04/22 06:55:32;;;;;;;18.30;5.63;;;10.80;99.90;;;;;;5083484;28;20205;-64
2021/04/22 06:57:59;;;;;;;13.83;5.83;;;11.00;99.90;;;;;;5069432;28;20692;-66
2021/04/22 07:00:28;;;;;;;12.30;5.78;;;11.10;99.90;;;;;;5068731;28;20176;-63
2021/04/22 07:02:53;;;;;;;13.30;5.50;;;11.20;99.90;;;;;;5049050;28;20178;-64
2021/04/22 07:05:20;;;;;;;11.07;4.57;;;11.40;99.90;;;;;;5048996;28;20237;-60
2021/04/22 07:07:46;;;;;;;13.00;5.80;;;11.50;99.90;;;;;;5066535;28;20208;-63
2021/04/22 07:10:13;;;;;;;10.53;5.40;;;11.60;99.90;;;;;;5067594;28;20177;-64
2021/04/22 07:12:39;;;;;;;14.13;5.00;;;11.70;99.90;;;;;;5069310;28;20428;-64
2021/04/22 07:15:08;;;;;;;13.10;5.33;;;11.80;99.90;;;;;;5056255;28;20418;-63
2021/04/22 07:17:34;;;;;;;12.40;6.33;;;12.20;99.90;;;;;;5063227;28;20419;-61
2021/04/22 07:20:00;;;;;;;9.43;4.17;;;12.60;99.90;;;;;;5065559;28;20503;-59
2021/04/22 07:22:26;;;;;;;14.27;5.40;;;13.10;99.90;;;;;;5065768;28;20457;-61
2021/04/22 07:24:55;;;;;;;12.10;5.47;;;13.50;99.90;;;;;;5048811;28;20252;-59
2021/04/22 07:27:22;;;;;;;10.17;5.20;;;13.50;99.90;;;;;;5057627;28;20420;-64
2021/04/22 07:29:48;;;;;;;11.57;5.27;;;13.90;99.90;;;;;;5067862;28;20458;-66
2021/04/22 07:32:15;;;;;;;15.90;6.13;;;14.40;99.40;;;;;;5065097;28;20568;-64
2021/04/22 07:34:41;;;;;;;12.00;6.20;;;14.60;97.80;;;;;;5049695;28;20462;-67
2021/04/22 07:37:08;;;;;;;13.00;6.20;;;15.00;97.40;;;;;;5050559;28;20553;-66
2021/04/22 07:39:34;;;;;;;14.23;5.93;;;15.20;96.40;;;;;;5068648;28;20420;-67
2021/04/22 07:42:00;;;;;;;10.73;5.70;;;15.40;95.70;;;;;;5061880;28;20442;-69
2021/04/22 07:44:25;;;;;;;17.20;6.73;;;15.30;96.10;;;;;;5047888;28;20413;-69
2021/04/22 07:46:52;;;;;;;10.20;5.00;;;15.50;95.20;;;;;;5065304;28;20670;-69
2021/04/22 07:49:18;;;;;;;14.50;5.80;;;15.60;94.90;;;;;;5067965;28;20316;-67
2021/04/22 07:51:43;;;;;;;12.40;6.23;;;15.40;94.50;;;;;;5063026;28;20468;-67
2021/04/22 07:54:10;;;;;;;11.83;5.87;;;15.40;94.20;;;;;;5064785;28;20482;-65
2021/04/22 07:56:36;;;;;;;11.73;6.07;;;15.20;94.70;;;;;;5050668;28;20181;-67
2021/04/22 07:59:02;;;;;;;12.30;5.37;;;15.20;94.50;;;;;;5058048;28;20515;-65
2021/04/22 08:01:29;;;;;;;12.10;6.30;;;15.10;94.50;;;;;;5068126;28;20401;-65
2021/04/22 08:03:55;;;;;;;10.00;5.57;;;15.20;95.00;;;;;;5061287;28;20586;-65
2021/04/22 08:06:20;;;;;;;12.00;6.00;;;15.60;94.60;;;;;;5067906;28;20436;-65
2021/04/22 08:08:46;;;;;;;10.20;5.07;;;16.00;93.20;;;;;;5060124;28;20224;-64
2021/04/22 08:11:12;;;;;;;11.30;5.47;;;16.10;92.60;;;;;;5047935;28;20420;-65
2021/04/22 08:13:38;;;;;;;9.20;5.50;;;16.20;92.20;;;;;;5048381;28;20166;-65
2021/04/22 08:16:04;;;;;;;10.53;5.73;;;16.50;91.60;;;;;;5047936;28;20229;-65
2021/04/22 08:18:30;;;;;;;10.73;5.30;;;16.90;91.50;;;;;;5047016;28;20488;-65
2021/04/22 08:20:57;;;;;;;8.40;5.13;;;16.90;90.60;;;;;;5048038;28;20421;-66
2021/04/22 08:23:28;;;;;;;9.40;4.70;;;17.30;89.90;;;;;;5047989;28;20402;-65
2021/04/22 08:26:00;;;;;;;9.57;4.73;;;17.90;89.00;;;;;;5047464;28;20705;-65
2021/04/22 08:28:29;;;;;;;11.67;4.80;;;17.90;86.10;;;;;;5047171;28;20471;-67
2021/04/22 08:31:02;;;;;;;8.90;4.90;;;17.40;86.80;;;;;;5046870;28;20484;-65
2021/04/22 08:33:31;;;;;;;8.17;5.57;;;17.10;88.20;;;;;;5047718;28;20421;-64
2021/04/22 08:35:57;;;;;;;12.63;6.00;;;17.70;86.10;;;;;;5047430;28;20400;-65
2021/04/22 08:38:23;;;;;;;8.97;4.13;;;17.80;85.70;;;;;;5047614;28;20739;-65
2021/04/22 08:40:51;;;;;;;8.57;4.60;;;18.40;85.10;;;;;;5046761;28;20212;-67
2021/04/22 08:43:17;;;;;;;9.17;5.30;;;19.10;83.70;;;;;;5047635;28;20422;-65
2021/04/22 08:45:44;;;;;;;7.57;4.33;;;19.70;81.80;;;;;;5053424;28;20411;-65
2021/04/22 08:48:11;;;;;;;7.20;4.23;;;19.40;79.30;;;;;;5087451;28;20601;-64
2021/04/22 08:50:39;;;;;;;10.20;4.30;;;19.40;80.80;;;;;;5087448;28;20521;-63
2021/04/22 08:53:08;;;;;;;8.80;5.60;;;18.90;77.60;;;;;;5087517;28;20399;-65
2021/04/22 08:55:35;;;;;;;9.97;5.23;;;18.50;77.70;;;;;;5087259;28;20391;-65
2021/04/22 08:58:03;;;;;;;7.70;4.00;;;18.50;79.10;;;;;;5087335;28;20430;-67
2021/04/22 09:00:39;;;;;;;9.00;5.00;;;18.70;80.00;;;;;;5087341;28;20399;-64
2021/04/22 09:03:05;;;;;;;8.40;4.60;;;19.30;78.70;;;;;;5087237;28;20486;-66
2021/04/22 09:05:31;;;;;;;7.70;4.00;;;20.10;75.90;;;;;;5086024;28;20427;-67
2021/04/22 09:07:57;;;;;;;7.87;4.07;;;20.40;75.50;;;;;;5086324;28;20545;-65
2021/04/22 09:10:25;;;;;;;8.50;4.83;;;20.20;74.30;;;;;;5086120;28;20419;-65
2021/04/22 09:13:03;;;;;;;7.60;4.10;;;20.70;73.70;;;;;;5087214;28;20403;-64
2021/04/22 09:15:31;;;;;;;5.67;3.63;;;20.70;70.20;;;;;;5086946;28;20414;-66
2021/04/22 09:17:59;;;;;;;7.23;4.30;;;21.20;70.00;;;;;;5087069;28;20426;-65
2021/04/22 09:20:34;;;;;;;6.90;3.63;;;21.50;68.40;;;;;;5086949;28;20426;-65
2021/04/22 09:23:11;;;;;;;6.80;3.63;;;21.40;66.00;;;;;;5087082;28;20588;-65
2021/04/22 09:25:37;;;;;;;7.50;4.87;;;21.50;67.30;;;;;;5085753;28;20457;-66
2021/04/22 09:28:05;;;;;;;6.67;3.40;;;21.40;66.80;;;;;;5086874;28;20690;-65
2021/04/22 09:30:40;;;;;;;6.07;3.60;;;21.30;65.70;;;;;;5086145;28;20169;-64
2021/04/22 09:33:07;;;;;;;9.63;4.17;;;21.60;64.80;;;;;;5086935;28;20398;-65
2021/04/22 09:35:33;;;;;;;7.20;3.43;;;21.70;64.60;;;;;;5086436;28;20648;-66
2021/04/22 09:38:02;;;;;;;8.13;4.10;;;21.80;63.50;;;;;;5086119;28;20525;-67
2021/04/22 09:40:35;;;;;;;6.83;3.80;;;22.00;64.10;;;;;;5086519;28;20403;-66
2021/04/22 09:43:08;;;;;;;5.70;3.83;;;22.50;63.00;;;;;;5085991;28;20415;-65
2021/04/22 09:45:36;;;;;;;5.87;3.80;;;22.80;62.10;;;;;;5086643;28;20400;-65
2021/04/22 09:48:21;;;;;;;6.70;3.60;;;22.60;62.60;;;;;;5086804;28;20438;-65
2021/04/22 09:50:47;;;;;;;6.60;3.60;;;22.80;62.00;;;;;;5086790;28;20622;-66
2021/04/22 09:53:16;;;;;;;6.80;3.47;;;22.30;59.10;;;;;;5086707;28;20430;-65
2021/04/22 09:55:43;;;;;;;5.10;3.00;;;21.60;59.50;;;;;;5085522;28;20434;-66
2021/04/22 09:58:12;;;;;;;6.80;3.53;;;20.90;59.80;;;;;;5085745;28;20945;-65
2021/04/22 10:00:38;;;;;;;6.50;3.70;;;21.30;59.90;;;;;;5086563;28;20426;-65
2021/04/22 10:03:09;;;;;;;5.10;3.00;;;21.80;61.90;;;;;;5085682;28;20398;-64
2021/04/22 10:05:37;;;;;;;5.43;2.90;;;22.20;62.30;;;;;;5086420;28;20491;-66
2021/04/22 10:08:08;;;;;;;5.70;3.40;;;22.60;60.60;;;;;;5086561;28;20447;-65
2021/04/22 10:10:36;;;;;;;5.80;2.80;;;22.80;59.20;;;;;;5085805;28;20461;-66
2021/04/22 10:13:05;;;;;;;5.30;2.97;;;23.10;58.80;;;;;;5086570;28;20442;-66
2021/04/22 10:15:32;;;;;;;4.90;2.80;;;22.70;55.40;;;;;;5086090;28;20407;-67
2021/04/22 10:18:04;;;;;;;5.07;2.50;;;22.00;54.90;;;;;;5085560;28;20431;-66
2021/04/22 10:20:32;;;;;;;6.37;2.73;;;21.90;56.50;;;;;;5085693;28;20490;-66
2021/04/22 10:22:59;;;;;;;5.03;2.67;;;22.00;56.50;;;;;;5086524;28;20373;-65
2021/04/22 10:25:27;;;;;;;4.13;1.77;;;21.90;56.60;;;;;;5085347;28;20449;-65
2021/04/22 10:27:53;;;;;;;5.07;3.10;;;21.70;56.50;;;;;;5086092;28;20527;-65
2021/04/22 10:30:24;;;;;;;6.33;2.30;;;21.70;55.90;;;;;;5086440;28;20434;-64
2021/04/22 10:32:51;;;;;;;5.23;2.37;;;22.00;55.50;;;;;;5086284;28;20399;-65
2021/04/22 10:35:23;;;;;;;5.87;2.53;;;22.10;55.20;;;;;;5086082;28;20410;-65
2021/04/22 10:37:51;;;;;;;5.10;2.67;;;21.80;56.10;;;;;;5086195;28;20486;-66
2021/04/22 10:40:19;;;;;;;4.53;1.87;;;21.90;55.40;;;;;;5086393;28;20474;-67
2021/04/22 10:42:45;;;;;;;4.10;2.30;;;21.90;53.40;;;;;;5086244;28;20497;-65
2021/04/22 10:45:14;;;;;;;4.83;2.63;;;21.90;54.30;;;;;;5085887;28;20409;-67
2021/04/22 10:47:41;;;;;;;4.43;2.17;;;22.20;55.40;;;;;;5065909;28;20438;-67
2021/04/22 10:50:16;;;;;;;5.80;3.20;;;22.40;52.60;;;;;;5083222;28;20503;-68
2021/04/22 10:52:48;;;;;;;4.60;2.20;;;22.20;53.20;;;;;;5069691;28;20407;-66
2021/04/22 10:55:20;;;;;;;4.30;2.23;;;22.00;51.60;;;;;;5069279;28;20423;-66
2021/04/22 10:57:47;;;;;;;5.83;1.83;;;22.20;53.00;;;;;;5085536;28;20438;-66
2021/04/22 11:00:15;;;;;;;3.37;1.57;;;22.40;50.10;;;;;;5069474;28;20404;-66
2021/04/22 11:02:52;;;;;;;3.93;2.10;;;22.60;50.50;;;;;;5069250;28;20443;-67
2021/04/22 11:05:25;;;;;;;4.37;1.90;;;22.70;50.20;;;;;;5068270;28;20432;-66
2021/04/22 11:08:00;;;;;;;4.17;1.80;;;22.10;50.10;;;;;;5085075;28;20519;-64
2021/04/22 11:10:46;;;;;;;5.07;1.93;;;21.10;50.80;;;;;;5069435;28;20528;-66
2021/04/22 11:13:19;;;;;;;5.57;2.00;;;20.40;52.00;;;;;;5069161;28;20506;-65
2021/04/22 11:15:58;;;;;;;4.73;1.83;;;19.60;51.90;;;;;;5068999;28;20411;-66
2021/04/22 11:18:56;;;;;;;4.70;1.70;;;18.50;52.70;;;;;;5069026;28;20691;-66
2021/04/22 11:21:29;;;;;;;5.33;2.23;;;17.80;53.80;;;;;;5056782;28;20472;-65
2021/04/22 11:23:59;;;;;;;4.60;1.93;;;17.30;54.50;;;;;;5068712;28;20431;-66
2021/04/22 11:26:32;;;;;;;4.77;2.13;;;16.90;55.20;;;;;;5068966;28;20398;-64
2021/04/22 11:29:13;;;;;;;4.20;1.83;;;16.70;54.70;;;;;;5068779;28;20607;-65
2021/04/22 11:31:53;;;;;;;4.90;2.27;;;16.60;52.00;;;;;;5068805;28;20462;-65
2021/04/22 11:34:34;;;;;;;5.20;2.50;;;16.50;52.30;;;;;;5068383;28;20423;-66
2021/04/22 11:36:59;;;;;;;4.93;1.80;;;16.20;50.00;;;;;;5068693;28;20618;-66
2021/04/22 11:39:34;;;;;;;3.20;1.20;;;16.10;49.60;;;;;;5067628;28;20532;-66
2021/04/22 11:42:01;;;;;;;4.63;1.60;;;16.00;50.70;;;;;;5068646;28;20489;-66
2021/04/22 11:44:37;;;;;;;3.60;1.60;;;15.90;52.40;;;;;;5067434;28;20426;-65
2021/04/22 11:47:18;;;;;;;9.07;2.13;;;15.80;53.50;;;;;;5081830;28;20419;-66
2021/04/22 11:49:44;;;;;;;6.03;1.40;;;15.80;51.20;;;;;;5088335;28;20494;-67
2021/04/22 11:52:19;;;;;;;3.27;1.20;;;15.90;49.00;;;;;;5088396;28;20402;-67
2021/04/22 11:54:47;;;;;;;4.40;1.30;;;15.80;49.20;;;;;;5087565;28;20433;-65
2021/04/22 11:57:14;;;;;;;4.87;1.40;;;15.70;48.50;;;;;;5088458;28;20639;-66
2021/04/22 11:59:40;;;;;;;3.60;1.53;;;15.70;49.40;;;;;;5087374;28;20437;-66
2021/04/22 12:02:10;;;;;;;4.47;1.90;;;15.70;49.50;;;;;;5086437;28;20616;-67
2021/04/22 12:04:50;;;;;;;4.00;1.20;;;15.80;48.70;;;;;;5088138;28;20429;-66
2021/04/22 12:07:21;;;;;;;3.20;1.20;;;16.00;50.40;;;;;;5088154;28;20497;-66
2021/04/22 12:09:52;;;;;;;3.03;1.03;;;16.00;50.60;;;;;;5088257;28;20454;-65
2021/04/22 12:12:24;;;;;;;3.53;1.00;;;16.00;47.20;;;;;;5088399;28;20456;-66
2021/04/22 12:14:59;;;;;;;12.67;1.30;;;16.00;46.50;;;;;;5088339;28;20426;-66
2021/04/22 12:17:30;;;;;;;3.93;1.10;;;15.90;44.80;;;;;;5088552;28;20441;-66
2021/04/22 12:20:19;;;;;;;3.40;1.23;;;15.80;44.40;;;;;;5088868;28;20414;-66
2021/04/22 12:22:48;;;;;;;4.70;1.47;;;15.60;46.00;;;;;;5087532;28;20590;-67
2021/04/22 12:25:20;;;;;;;4.07;1.70;;;15.40;45.60;;;;;;5089134;28;20395;-66
2021/04/22 12:28:01;;;;;;;12.00;1.70;;;15.40;45.70;;;;;;5088441;28;20489;-67
2021/04/22 12:30:40;;;;;;;4.97;1.53;;;15.40;44.50;;;;;;5087438;28;20421;-64
2021/04/22 12:33:24;;;;;;;4.50;1.47;;;15.30;46.50;;;;;;5087914;28;20414;-66
2021/04/22 12:35:59;;;;;;;5.43;1.53;;;15.30;48.30;;;;;;5086584;28;20693;-66
2021/04/22 12:38:26;;;;;;;3.23;1.33;;;15.30;47.60;;;;;;5086695;28;20448;-66
2021/04/22 12:41:07;;;;;;;3.00;1.10;;;15.20;46.80;;;;;;5087540;28;20453;-66
2021/04/22 12:43:35;;;;;;;5.30;1.30;;;15.20;47.70;;;;;;5086690;28;20424;-66
2021/04/22 12:46:18;;;;;;;3.63;1.50;;;15.10;45.30;;;;;;5080785;28;20426;-66
2021/04/22 12:48:53;;;;;;;2.80;0.93;;;15.00;46.00;;;;;;5067655;28;20417;-67
2021/04/22 12:51:19;;;;;;;3.07;1.13;;;15.00;45.10;;;;;;5067478;28;20452;-66
2021/04/22 12:53:47;;;;;;;3.00;0.90;;;14.80;45.20;;;;;;5066380;28;20453;-66